Demo 6

Misión y Visión

La misión es proporcionar información fiable a la navegación aérea, contribuyendo a la seguridad, regularidad y eficiencia de la Navegación Aérea Internacional

La visión es contribuir sustancialmente al desarrollo de conocimientos y a la utilización de la meteorología aeronáutica a nivel nacional e internacional, mediante la innovación y la coparticipación con sectores sociales y productivos de la sociedad.

 
  Inicio
  Metar
  Taf
  Wintemp
  SIGMET
  Avisos
  Pronósticos
  Carpeta Meteorologica
  Imágenes Satelitales
  Climatología Aeronáutica
   
  ¿Quienes Somos?
  Contacto
  Eventos



DIRECCIONES PARA INFORMES NACIONALES E INTERNACIONALES
(Metar /Speci - TAF)



http://adds.aviationweather.gov/tafs/index.php

http://www.ogimet.com/metars.phtml



PRONÓSTICOS DE AERÓDROMO

Cuando sea necesario, el encabezamiento abreviado puede incluir un cuarto grupo consistente en tres letras para identificar los boletines demorados (RRA), corregidos(CCA) o enmendados (AAA). Los boletines adicionales demorados, corregidos o enmendados deben identificarse con las letras RRB, RRC, etc.; CCB, CCC,etc.;AAB, AAC,etc.



ESTACIONES DESCRIPCION
MPTO (M) 181600Z VRB02KT 9999 SCT018 BKN090 27/24 Q1012 NOSIG  
MPBO (M) 181600Z 27008KT 9999 SCT016 SCT080 ///// Q1015  
MPCH (M) 181600Z 30008KT 9999 FEW020 SCT100 29/23 Q1015  
MPSA (M) 181500Z 00000KT 9999 SCT018 BKN080 27/23 Q1013  
MPCE (M)  
MPPN (M) 181600Z 00000KT(E) 9999 SCT015 OVC100  
MPSM (M) 180300Z 28003KT(E) 9999 FEW018CB SCT090 25/24 Q1012 RMK DSNT CB NE  
MPJE (M)  
MPPA (M) 181600Z 00000KT 9999 SCT018 SCT080 28/25 Q1012  
MPMG (M) 181600Z 35003KT 9000 VCSH SCT016TCU BKN090 29/24 Q1012 NOSIG RMK TCU N-NE/SW-W PCPN SW  
MPDA (M) 181600Z 28004KT 9999 SCT018 29/23 Q1011  
MPVR (M)  
MPWN (M)  
MPOA (M) 181600Z 33006KT(E) 9999 SCT025 BKN080 Q1012  
MPMF (M)  
MPEJ (M) 181600Z 27006KT(E) 9999 SCT012TCU BKN080 Q1012 RMK TCU E-S  


CLIMATICAS

MPTO

17-OCTUBRE-2018

 

PCPN (mm)

T° MAX

T° MIN

VIENTO MAX (KT)

HORA

VIENTO PREDOM (KT)

0.0 mm

28.2

24.1

13009KT

1700Z

SW 04KT

CLIMATICAS

MPMG

17-OCTUBRE-2018

PCPN (mm)

T° MAX T° MIN VIENTO MAX (KT) HORA VIENTO PREDOM (KT)
12.9 28.6

24.8

10007KT

1700Z

SSE

 

 
 

Found

The document has moved here.